Time;durP1;ratioP1;P1;durP2;ratioP2;P2;SDS_P1;SDS_P2;PMS_P1;PMS_P2;Temp;Humidity;BMP_temperature;BMP_pressure;BME280_temperature;BME280_humidity;BME280_pressure;Samples;Min_cycle;Max_cycle;Signal;HPM_P1;HPM_P2
2022/03/18 06:00:16;;;;;;;26.30;23.50;;;10.40;97.20;;;;;;1701186;29;20191;-77
2022/03/18 06:01:07;;;;;;;26.17;23.40;;;10.30;97.20;;;;;;1701010;29;20242;-77
2022/03/18 06:02:01;;;;;;;27.73;24.23;;;10.30;97.20;;;;;;1700948;29;20203;-76
2022/03/18 06:02:53;;;;;;;27.33;23.58;;;10.30;97.20;;;;;;1700999;29;20211;-77
2022/03/18 06:03:45;;;;;;;26.15;23.35;;;10.40;97.20;;;;;;1700876;29;20207;-77
2022/03/18 06:04:36;;;;;;;26.75;22.60;;;10.40;97.20;;;;;;1700957;29;20241;-76
2022/03/18 06:05:28;;;;;;;25.37;22.67;;;10.40;97.20;;;;;;1701147;29;20214;-77
2022/03/18 06:06:18;;;;;;;25.70;23.15;;;10.40;97.20;;;;;;1701020;29;20246;-77
2022/03/18 06:07:11;;;;;;;25.17;22.60;;;10.40;97.20;;;;;;1701232;29;20214;-77
2022/03/18 06:12:37;;;;;;;26.33;23.60;;;10.40;97.20;;;;;;1697839;29;20202;-77
2022/03/18 06:13:28;;;;;;;26.65;23.85;;;10.40;97.20;;;;;;1695248;29;20207;-77
2022/03/18 06:14:22;;;;;;;25.33;22.77;;;10.30;97.20;;;;;;1697312;29;20274;-77
2022/03/18 06:15:12;;;;;;;25.90;23.30;;;10.30;97.20;;;;;;1701001;29;20234;-77
2022/03/18 06:16:06;;;;;;;30.13;24.03;;;10.30;97.20;;;;;;1700893;29;20207;-77
2022/03/18 06:16:58;;;;;;;26.45;23.73;;;10.30;97.20;;;;;;1699816;29;20251;-77
2022/03/18 06:17:50;;;;;;;26.23;23.50;;;10.30;97.20;;;;;;1697557;29;20668;-78
2022/03/18 06:18:41;;;;;;;25.08;22.55;;;10.30;97.20;;;;;;1700372;29;20289;-77
2022/03/18 06:19:33;;;;;;;25.53;22.93;;;10.30;97.20;;;;;;1697883;29;20195;-77
2022/03/18 06:20:24;;;;;;;27.08;24.08;;;10.30;97.20;;;;;;1695014;29;20227;-78
2022/03/18 06:21:16;;;;;;;29.57;26.43;;;10.30;97.20;;;;;;1699125;29;20199;-78
2022/03/18 06:22:08;;;;;;;29.20;26.25;;;10.30;97.20;;;;;;1701129;29;20207;-77
2022/03/18 06:22:59;;;;;;;28.92;26.02;;;10.30;97.20;;;;;;1701149;29;20643;-78
2022/03/18 06:23:50;;;;;;;28.15;25.15;;;10.30;97.20;;;;;;1700839;29;20266;-77
2022/03/18 06:24:42;;;;;;;26.43;23.83;;;10.30;97.20;;;;;;1701195;29;20254;-78
2022/03/18 06:25:33;;;;;;;28.15;25.15;;;10.30;97.20;;;;;;1700750;29;20234;-77
2022/03/18 06:26:24;;;;;;;28.07;25.10;;;10.30;97.20;;;;;;1700980;29;20647;-78
2022/03/18 06:27:15;;;;;;;27.02;24.30;;;10.30;97.20;;;;;;1701103;29;20214;-79
2022/03/18 06:28:07;;;;;;;25.60;22.93;;;10.30;97.20;;;;;;1700250;29;20202;-77
2022/03/18 06:28:58;;;;;;;26.83;23.83;;;10.30;97.20;;;;;;1700285;29;20226;-77
2022/03/18 06:29:51;;;;;;;27.80;24.90;;;10.30;97.20;;;;;;1700686;29;20218;-77
2022/03/18 06:30:42;;;;;;;27.73;24.67;;;10.30;97.20;;;;;;1700830;29;20227;-77
2022/03/18 06:31:35;;;;;;;26.60;23.50;;;10.30;97.20;;;;;;1700939;29;20235;-77
2022/03/18 06:32:26;;;;;;;26.60;23.88;;;10.30;97.20;;;;;;1700901;29;20203;-76
2022/03/18 06:33:18;;;;;;;26.70;23.87;;;10.40;97.20;;;;;;1700858;29;20214;-77
2022/03/18 06:34:10;;;;;;;26.45;23.90;;;10.30;97.20;;;;;;1700889;29;20203;-77
2022/03/18 06:35:01;;;;;;;26.40;23.75;;;10.40;97.20;;;;;;1700744;29;20294;-77
2022/03/18 06:35:52;;;;;;;25.58;23.17;;;10.40;97.20;;;;;;1700781;29;20207;-77
2022/03/18 06:36:44;;;;;;;27.00;24.30;;;10.40;97.20;;;;;;1700785;29;20199;-77
2022/03/18 06:37:35;;;;;;;25.80;23.00;;;10.40;97.20;;;;;;1698674;29;20343;-78
2022/03/18 06:38:27;;;;;;;26.27;23.60;;;10.40;97.20;;;;;;1695650;29;20207;-77
2022/03/18 06:39:19;;;;;;;26.63;23.92;;;10.40;97.20;;;;;;1700386;29;20232;-78
2022/03/18 06:40:11;;;;;;;26.70;23.90;;;10.40;97.20;;;;;;1693927;29;20243;-77
2022/03/18 06:41:02;;;;;;;27.33;24.52;;;10.40;97.20;;;;;;1694048;29;20215;-78
2022/03/18 06:41:54;;;;;;;26.73;24.13;;;10.40;97.20;;;;;;1693783;29;20219;-77
2022/03/18 06:42:44;;;;;;;27.05;24.35;;;10.40;97.20;;;;;;1694609;29;20520;-77
2022/03/18 06:43:36;;;;;;;27.67;24.80;;;10.40;97.20;;;;;;1700508;29;20306;-78
2022/03/18 06:44:28;;;;;;;25.05;22.55;;;10.40;97.20;;;;;;1695434;29;20204;-78
2022/03/18 06:45:19;;;;;;;26.70;23.88;;;10.40;97.20;;;;;;1699662;29;20554;-78
2022/03/18 06:46:11;;;;;;;26.90;24.37;;;10.40;97.20;;;;;;1700671;29;20283;-78
2022/03/18 06:47:05;;;;;;;27.17;24.48;;;10.40;97.20;;;;;;1700690;29;20203;-77
2022/03/18 06:47:56;;;;;;;26.90;24.13;;;10.40;97.20;;;;;;1700170;29;20230;-77
2022/03/18 06:48:47;;;;;;;27.03;24.27;;;10.40;97.20;;;;;;1699747;29;20198;-78
2022/03/18 06:49:38;;;;;;;28.02;25.08;;;10.40;97.20;;;;;;1699596;29;20237;-78
2022/03/18 06:50:30;;;;;;;26.17;23.67;;;10.40;97.20;;;;;;1700462;29;20206;-78
2022/03/18 06:51:21;;;;;;;26.02;23.38;;;10.40;97.20;;;;;;1700383;29;20239;-78
2022/03/18 06:52:12;;;;;;;27.40;24.57;;;10.40;97.20;;;;;;1700160;29;20213;-78
2022/03/18 06:53:03;;;;;;;26.25;23.63;;;10.50;97.20;;;;;;1700772;29;20237;-78
2022/03/18 06:53:55;;;;;;;26.53;23.73;;;10.50;97.20;;;;;;1700769;29;20206;-78
2022/03/18 06:54:46;;;;;;;28.67;25.85;;;10.50;97.20;;;;;;1699661;29;20222;-78
2022/03/18 06:55:38;;;;;;;27.90;25.10;;;10.50;97.20;;;;;;1700139;29;20196;-77
2022/03/18 06:56:30;;;;;;;27.70;24.98;;;10.50;97.20;;;;;;1700769;29;20214;-77
2022/03/18 06:57:22;;;;;;;25.95;23.40;;;10.50;97.20;;;;;;1700652;29;20199;-77
2022/03/18 06:58:13;;;;;;;29.27;25.52;;;10.50;97.20;;;;;;1700423;29;20611;-78
2022/03/18 06:59:05;;;;;;;27.93;25.00;;;10.50;97.20;;;;;;1700518;29;20579;-77
2022/03/18 06:59:56;;;;;;;28.25;25.35;;;10.50;97.20;;;;;;1700082;29;20211;-78
2022/03/18 07:00:48;;;;;;;29.70;24.90;;;10.50;97.20;;;;;;1699531;29;20257;-78
2022/03/18 07:01:40;;;;;;;27.02;24.23;;;10.50;97.20;;;;;;1700002;29;20466;-77
2022/03/18 07:02:32;;;;;;;26.40;23.75;;;10.50;97.20;;;;;;1697546;29;20230;-78
2022/03/18 07:03:23;;;;;;;28.13;25.27;;;10.50;97.20;;;;;;1694209;29;20204;-78
2022/03/18 07:04:14;;;;;;;26.65;23.83;;;10.60;97.20;;;;;;1694309;29;20200;-78
2022/03/18 07:05:09;;;;;;;26.60;23.98;;;10.60;97.20;;;;;;1694338;29;20246;-78
2022/03/18 07:06:00;;;;;;;28.65;25.75;;;10.60;97.20;;;;;;1695041;29;20227;-78
2022/03/18 07:06:51;;;;;;;28.90;25.97;;;10.60;97.20;;;;;;1695522;29;20303;-78
2022/03/18 07:07:42;;;;;;;26.60;23.90;;;10.70;97.20;;;;;;1700157;29;20641;-77
2022/03/18 07:08:34;;;;;;;27.47;24.70;;;10.70;97.20;;;;;;1701554;29;20750;-77
2022/03/18 07:09:25;;;;;;;28.60;25.50;;;10.60;97.20;;;;;;1701812;29;20211;-77
2022/03/18 07:10:17;;;;;;;27.70;24.80;;;10.60;97.20;;;;;;1701714;29;20253;-77
2022/03/18 07:11:13;;;;;;;27.15;24.35;;;10.60;97.20;;;;;;1701774;29;20459;-77
2022/03/18 07:12:06;;;;;;;27.75;24.88;;;10.60;97.20;;;;;;1702116;29;20195;-78
2022/03/18 07:12:57;;;;;;;28.40;25.38;;;10.60;97.20;;;;;;1701879;29;20356;-78
2022/03/18 07:13:49;;;;;;;27.63;24.73;;;10.50;97.20;;;;;;1701794;29;20210;-78
2022/03/18 07:14:40;;;;;;;28.15;25.15;;;10.50;97.20;;;;;;1702217;29;20610;-78
2022/03/18 07:15:31;;;;;;;29.40;25.53;;;10.50;97.20;;;;;;1701952;29;20602;-78
2022/03/18 07:18:43;;;;;;;27.27;24.63;;;10.50;97.20;;;;;;1701734;29;21148;-78
2022/03/18 07:19:34;;;;;;;27.35;24.55;;;10.50;97.20;;;;;;1701919;29;20560;-78
2022/03/18 07:20:28;;;;;;;27.57;24.67;;;10.50;97.20;;;;;;1701875;29;20226;-78
2022/03/18 07:21:18;;;;;;;27.80;24.92;;;10.60;97.20;;;;;;1699881;29;20195;-78
2022/03/18 07:22:10;;;;;;;28.60;25.60;;;10.60;97.20;;;;;;1701301;29;20242;-78
2022/03/18 07:23:03;;;;;;;27.30;24.60;;;10.60;97.20;;;;;;1701225;29;20235;-77
2022/03/18 07:23:54;;;;;;;29.83;26.83;;;10.60;97.20;;;;;;1701877;29;20206;-77
2022/03/18 07:24:45;;;;;;;31.33;26.55;;;10.60;97.20;;;;;;1701992;29;20655;-78
2022/03/18 07:25:38;;;;;;;29.67;26.67;;;10.60;97.20;;;;;;1702005;29;20221;-78
2022/03/18 07:26:29;;;;;;;28.38;25.55;;;10.60;97.20;;;;;;1701871;29;20481;-78
2022/03/18 07:27:21;;;;;;;30.60;27.47;;;10.60;97.20;;;;;;1702055;29;20213;-78
2022/03/18 07:28:14;;;;;;;30.80;27.48;;;10.60;97.20;;;;;;1701665;29;20505;-78
2022/03/18 07:29:06;;;;;;;31.25;28.05;;;10.60;97.20;;;;;;1702030;29;20203;-78
2022/03/18 07:29:57;;;;;;;30.20;27.10;;;10.60;97.20;;;;;;1701954;29;20643;-78
2022/03/18 07:30:49;;;;;;;29.73;26.63;;;10.60;97.20;;;;;;1697149;29;20758;-78
2022/03/18 07:31:40;;;;;;;28.63;25.73;;;10.60;97.20;;;;;;1702103;29;20211;-78
2022/03/18 07:32:32;;;;;;;30.43;27.30;;;10.60;97.20;;;;;;1702005;29;20286;-78
2022/03/18 07:33:24;;;;;;;30.95;27.60;;;10.60;97.20;;;;;;1702078;29;20233;-78
2022/03/18 07:34:15;;;;;;;29.52;26.52;;;10.70;97.20;;;;;;1702154;29;20745;-78
2022/03/18 07:35:07;;;;;;;31.23;27.92;;;10.60;97.20;;;;;;1702047;29;20217;-77
2022/03/18 07:35:59;;;;;;;30.85;27.50;;;10.70;97.20;;;;;;1701986;29;20207;-78
2022/03/18 07:36:50;;;;;;;30.05;27.00;;;10.70;97.20;;;;;;1702133;29;20666;-78
2022/03/18 07:37:42;;;;;;;30.60;27.40;;;10.70;97.20;;;;;;1700965;29;20191;-78
2022/03/18 07:38:33;;;;;;;30.58;27.38;;;10.70;97.20;;;;;;1700732;29;20579;-77
2022/03/18 07:39:25;;;;;;;30.57;27.33;;;10.70;97.20;;;;;;1701086;29;20257;-77
2022/03/18 07:40:17;;;;;;;30.95;27.60;;;10.70;97.20;;;;;;1701135;29;20214;-78
2022/03/18 07:41:09;;;;;;;30.77;27.30;;;10.70;97.20;;;;;;1701205;29;20199;-77
2022/03/18 07:42:00;;;;;;;29.27;26.33;;;10.70;97.20;;;;;;1701207;29;20207;-77
2022/03/18 07:42:53;;;;;;;30.40;27.40;;;10.70;97.20;;;;;;1701119;29;20214;-77
2022/03/18 07:43:44;;;;;;;29.85;26.77;;;10.70;97.20;;;;;;1701752;29;20207;-78
2022/03/18 07:44:36;;;;;;;30.60;27.40;;;10.70;97.20;;;;;;1701797;29;20203;-77
2022/03/18 07:45:29;;;;;;;30.42;27.33;;;10.80;97.20;;;;;;1702033;29;20206;-77
2022/03/18 07:46:20;;;;;;;32.15;28.75;;;10.80;97.20;;;;;;1701939;29;20266;-77
2022/03/18 07:47:11;;;;;;;33.17;29.70;;;10.80;97.20;;;;;;1701774;29;20701;-77
2022/03/18 07:48:05;;;;;;;31.60;28.40;;;10.80;97.20;;;;;;1701387;29;20645;-78
2022/03/18 07:48:57;;;;;;;33.35;29.95;;;10.80;97.20;;;;;;1701797;29;20212;-77
2022/03/18 07:49:48;;;;;;;32.75;29.38;;;10.80;97.20;;;;;;1701688;29;20203;-78
2022/03/18 07:50:39;;;;;;;31.23;27.75;;;10.80;97.20;;;;;;1701798;29;20615;-78
2022/03/18 07:51:31;;;;;;;32.40;29.10;;;10.80;97.20;;;;;;1701814;29;20203;-78
2022/03/18 07:52:22;;;;;;;33.67;30.02;;;10.90;97.20;;;;;;1702026;29;20207;-78
2022/03/18 07:53:14;;;;;;;32.42;29.08;;;10.90;97.20;;;;;;1701839;29;20227;-78
2022/03/18 07:54:05;;;;;;;32.50;29.20;;;10.90;97.20;;;;;;1700202;29;20737;-78
2022/03/18 07:54:56;;;;;;;32.93;29.37;;;10.90;97.20;;;;;;1701782;29;20602;-78
2022/03/18 07:55:48;;;;;;;34.05;30.45;;;10.90;97.20;;;;;;1701819;29;20704;-78
2022/03/18 07:56:40;;;;;;;31.25;28.02;;;10.90;97.20;;;;;;1701806;29;20257;-78
2022/03/18 07:57:31;;;;;;;32.78;29.33;;;10.90;97.20;;;;;;1701708;29;20289;-78
2022/03/18 07:58:22;;;;;;;33.70;30.17;;;10.90;97.20;;;;;;1701543;29;20245;-78
2022/03/18 07:59:14;;;;;;;34.03;30.47;;;10.90;97.20;;;;;;1701629;29;20210;-78
2022/03/18 08:00:07;;;;;;;33.22;29.92;;;10.90;97.20;;;;;;1701372;29;20321;-77
2022/03/18 08:00:59;;;;;;;34.55;30.92;;;11.00;97.20;;;;;;1695097;29;20238;-77
2022/03/18 08:01:49;;;;;;;32.63;29.17;;;11.00;97.20;;;;;;1695074;29;20239;-77
2022/03/18 08:02:41;;;;;;;35.33;31.60;;;11.00;97.20;;;;;;1699871;29;20200;-77
2022/03/18 08:03:32;;;;;;;33.15;29.65;;;11.00;97.20;;;;;;1698454;29;20219;-77
2022/03/18 08:04:25;;;;;;;33.80;29.90;;;11.00;97.20;;;;;;1695159;29;20296;-78
2022/03/18 08:05:16;;;;;;;33.67;30.08;;;11.00;97.20;;;;;;1695133;29;20455;-77
2022/03/18 08:06:08;;;;;;;33.83;30.52;;;11.00;97.20;;;;;;1694988;29;20199;-77
2022/03/18 08:07:00;;;;;;;35.55;30.08;;;11.00;97.20;;;;;;1695016;29;20235;-77
2022/03/18 08:07:53;;;;;;;39.17;31.27;;;11.00;97.20;;;;;;1694892;29;20200;-77
2022/03/18 08:08:43;;;;;;;34.95;31.20;;;11.00;97.20;;;;;;1694752;29;20207;-76
2022/03/18 08:09:35;;;;;;;36.03;32.23;;;11.00;97.20;;;;;;1694900;29;20678;-77
2022/03/18 08:10:26;;;;;;;33.83;30.27;;;11.00;97.20;;;;;;1694841;29;20227;-77
2022/03/18 08:11:18;;;;;;;33.87;30.57;;;11.00;97.20;;;;;;1695194;29;20252;-77
2022/03/18 08:12:10;;;;;;;35.47;31.75;;;11.00;97.20;;;;;;1695080;29;20232;-77
2022/03/18 08:13:01;;;;;;;36.83;32.35;;;11.00;97.20;;;;;;1695045;29;20231;-78
2022/03/18 08:13:52;;;;;;;34.78;30.88;;;11.00;97.20;;;;;;1695041;29;20673;-77
2022/03/18 08:14:44;;;;;;;33.40;29.90;;;11.00;97.20;;;;;;1695066;29;20392;-77
2022/03/18 08:15:35;;;;;;;36.08;32.28;;;11.10;97.20;;;;;;1695113;29;20819;-77
2022/03/18 08:16:27;;;;;;;34.73;31.20;;;11.10;97.20;;;;;;1695650;29;20657;-77
2022/03/18 08:17:18;;;;;;;38.65;32.13;;;11.10;97.20;;;;;;1695029;29;20459;-78
2022/03/18 08:18:10;;;;;;;37.23;33.23;;;11.10;97.20;;;;;;1694684;29;20200;-77
2022/03/18 08:19:02;;;;;;;35.75;31.92;;;11.00;97.20;;;;;;1695143;29;20599;-77
2022/03/18 08:19:55;;;;;;;36.83;32.90;;;11.10;97.20;;;;;;1695058;29;20232;-78
2022/03/18 08:20:49;;;;;;;36.67;32.88;;;11.10;97.20;;;;;;1694908;29;20227;-77
2022/03/18 08:21:41;;;;;;;37.25;33.22;;;11.10;97.20;;;;;;1695077;29;20574;-77
2022/03/18 08:22:32;;;;;;;37.88;33.88;;;11.10;97.20;;;;;;1695013;29;20235;-77
2022/03/18 08:23:26;;;;;;;36.93;33.10;;;11.10;97.20;;;;;;1695154;29;20217;-77
2022/03/18 08:24:18;;;;;;;38.10;34.08;;;11.10;97.20;;;;;;1694966;29;20483;-77
2022/03/18 08:25:10;;;;;;;36.90;32.88;;;11.10;97.20;;;;;;1694970;29;20271;-77
2022/03/18 08:26:01;;;;;;;36.63;32.75;;;11.10;97.20;;;;;;1694697;29;20231;-77
2022/03/18 08:26:54;;;;;;;38.47;32.17;;;11.10;97.20;;;;;;1694785;29;20206;-77
2022/03/18 08:27:47;;;;;;;39.63;34.22;;;11.10;97.20;;;;;;1700016;29;20203;-77
2022/03/18 08:28:39;;;;;;;37.28;33.42;;;11.10;97.20;;;;;;1700582;29;20631;-77
2022/03/18 08:29:29;;;;;;;36.80;32.83;;;11.10;97.20;;;;;;1700644;29;20235;-77
2022/03/18 08:30:21;;;;;;;36.33;32.20;;;11.10;97.20;;;;;;1699043;29;21785;-78
2022/03/18 08:31:12;;;;;;;37.83;33.92;;;11.20;97.20;;;;;;1694886;29;20249;-77
2022/03/18 08:32:04;;;;;;;36.80;32.90;;;11.20;97.20;;;;;;1694784;29;20210;-77
2022/03/18 08:32:55;;;;;;;38.97;33.65;;;11.20;97.20;;;;;;1694973;29;20223;-77
2022/03/18 08:33:46;;;;;;;37.57;33.57;;;11.20;97.20;;;;;;1695005;29;20322;-77
2022/03/18 08:34:37;;;;;;;36.58;32.63;;;11.20;97.20;;;;;;1695081;29;20204;-77
2022/03/18 08:35:30;;;;;;;37.10;33.17;;;11.20;97.20;;;;;;1694855;29;20196;-77
2022/03/18 08:36:21;;;;;;;38.67;34.58;;;11.20;97.20;;;;;;1695007;29;20577;-77
2022/03/18 08:37:13;;;;;;;37.53;33.73;;;11.20;97.20;;;;;;1694827;29;20196;-78
2022/03/18 08:38:07;;;;;;;41.90;35.25;;;11.20;97.20;;;;;;1694641;29;20235;-77
2022/03/18 08:38:59;;;;;;;36.85;32.72;;;11.30;97.20;;;;;;1694995;29;20624;-77
2022/03/18 08:39:49;;;;;;;39.38;35.17;;;11.30;97.20;;;;;;1694853;29;20214;-77
2022/03/18 08:40:41;;;;;;;38.77;34.03;;;11.30;97.20;;;;;;1694906;29;20230;-77
2022/03/18 08:41:32;;;;;;;37.00;33.10;;;11.30;97.20;;;;;;1694789;29;20212;-77
2022/03/18 08:42:24;;;;;;;37.10;33.10;;;11.30;97.20;;;;;;1694984;29;20286;-77
2022/03/18 08:43:15;;;;;;;36.13;32.38;;;11.40;97.20;;;;;;1694884;29;20975;-77
2022/03/18 08:44:07;;;;;;;36.77;32.77;;;11.40;97.20;;;;;;1695936;29;20708;-77
2022/03/18 08:44:58;;;;;;;37.53;33.63;;;11.40;97.20;;;;;;1694959;29;20211;-77
2022/03/18 08:45:51;;;;;;;38.03;33.93;;;11.40;97.20;;;;;;1694918;29;20275;-77
2022/03/18 08:46:41;;;;;;;37.80;33.70;;;11.40;97.20;;;;;;1694917;29;20211;-77
2022/03/18 08:47:33;;;;;;;37.13;33.13;;;11.40;97.20;;;;;;1694931;29;20203;-77
2022/03/18 08:48:24;;;;;;;37.03;32.95;;;11.40;97.20;;;;;;1694612;29;20219;-77
2022/03/18 08:49:16;;;;;;;35.90;32.10;;;11.40;97.20;;;;;;1694817;29;20214;-77
2022/03/18 08:50:07;;;;;;;37.88;33.90;;;11.40;97.20;;;;;;1694842;29;20223;-77
2022/03/18 08:51:00;;;;;;;39.10;35.00;;;11.40;97.20;;;;;;1693924;29;20234;-77
2022/03/18 08:51:51;;;;;;;36.60;32.80;;;11.40;97.20;;;;;;1694819;29;20231;-76
2022/03/18 08:52:45;;;;;;;38.17;33.93;;;11.40;97.20;;;;;;1694885;29;20207;-77
2022/03/18 08:53:37;;;;;;;37.67;33.72;;;11.40;97.20;;;;;;1694785;29;20295;-77
2022/03/18 08:54:28;;;;;;;39.38;34.35;;;11.40;97.20;;;;;;1694815;29;20629;-77
2022/03/18 08:55:21;;;;;;;38.93;34.47;;;11.40;97.20;;;;;;1694889;29;20204;-77
2022/03/18 08:56:11;;;;;;;36.63;32.90;;;11.40;97.20;;;;;;1694720;29;20207;-77
2022/03/18 08:57:03;;;;;;;38.13;34.23;;;11.40;97.20;;;;;;1694962;29;20262;-77
2022/03/18 08:57:54;;;;;;;37.35;33.55;;;11.40;97.20;;;;;;1694775;29;20243;-77
2022/03/18 08:58:46;;;;;;;37.28;33.30;;;11.50;97.20;;;;;;1694700;29;20235;-78
2022/03/18 08:59:37;;;;;;;37.55;33.53;;;11.50;97.20;;;;;;1694799;29;20434;-78
2022/03/18 09:00:29;;;;;;;38.20;34.30;;;11.50;97.20;;;;;;1697918;29;20333;-77
2022/03/18 09:01:20;;;;;;;37.03;33.13;;;11.50;97.20;;;;;;1701345;29;20212;-78
2022/03/18 09:02:12;;;;;;;38.53;34.53;;;11.50;97.20;;;;;;1701273;29;20278;-78
2022/03/18 09:03:03;;;;;;;39.42;34.92;;;11.50;97.20;;;;;;1701294;29;20211;-78
2022/03/18 09:03:55;;;;;;;38.83;34.33;;;11.50;97.20;;;;;;1701346;29;20301;-77
2022/03/18 09:04:48;;;;;;;38.28;34.30;;;11.50;97.20;;;;;;1701389;29;20207;-77
2022/03/18 09:05:40;;;;;;;37.53;33.65;;;11.50;97.20;;;;;;1701381;29;20659;-77
2022/03/18 09:06:32;;;;;;;37.83;33.75;;;11.50;97.20;;;;;;1701330;29;20210;-77
2022/03/18 09:07:24;;;;;;;38.20;34.10;;;11.50;97.20;;;;;;1701241;29;20269;-78
2022/03/18 09:08:15;;;;;;;37.85;33.95;;;11.50;97.20;;;;;;1701012;29;20211;-77
2022/03/18 09:09:06;;;;;;;37.50;33.50;;;11.50;97.20;;;;;;1701328;29;20227;-77
2022/03/18 09:09:57;;;;;;;37.47;33.60;;;11.50;97.20;;;;;;1701335;29;20605;-77
2022/03/18 09:10:49;;;;;;;37.00;33.00;;;11.50;97.20;;;;;;1701287;29;20585;-77
2022/03/18 09:11:41;;;;;;;37.90;33.90;;;11.60;97.20;;;;;;1701323;29;20503;-77
2022/03/18 09:12:33;;;;;;;38.55;33.40;;;11.60;97.20;;;;;;1701344;29;20265;-77
2022/03/18 09:13:25;;;;;;;36.20;32.35;;;11.60;97.20;;;;;;1701206;29;20214;-77
2022/03/18 09:14:16;;;;;;;37.97;33.88;;;11.50;97.20;;;;;;1701378;29;20629;-77
2022/03/18 09:15:08;;;;;;;38.30;34.03;;;11.60;97.20;;;;;;1701223;29;20681;-77
2022/03/18 09:16:01;;;;;;;36.13;32.30;;;11.60;97.20;;;;;;1701183;29;20276;-77
2022/03/18 09:16:53;;;;;;;37.95;33.90;;;11.50;97.20;;;;;;1701306;29;20213;-77
2022/03/18 09:17:44;;;;;;;37.22;33.28;;;11.50;97.20;;;;;;1701004;29;20211;-77
2022/03/18 09:18:36;;;;;;;36.72;32.90;;;11.50;97.20;;;;;;1700995;29;20202;-77
2022/03/18 09:19:27;;;;;;;39.10;34.90;;;11.50;97.20;;;;;;1701103;29;20238;-78
2022/03/18 09:20:18;;;;;;;37.57;32.33;;;11.50;97.20;;;;;;1701166;29;20207;-77
2022/03/18 09:21:09;;;;;;;40.22;33.58;;;11.50;97.20;;;;;;1701231;29;20536;-78
2022/03/18 09:22:02;;;;;;;37.27;33.30;;;11.60;97.20;;;;;;1701203;29;20296;-77
2022/03/18 09:22:54;;;;;;;38.17;33.15;;;11.60;97.20;;;;;;1701151;29;20206;-77
2022/03/18 09:23:45;;;;;;;37.85;33.83;;;11.60;97.20;;;;;;1701166;29;20211;-77
2022/03/18 09:24:38;;;;;;;36.07;32.27;;;11.60;97.20;;;;;;1701093;29;20202;-77
2022/03/18 09:25:29;;;;;;;37.30;33.40;;;11.60;97.20;;;;;;1700872;29;20682;-77
2022/03/18 09:26:22;;;;;;;36.90;32.90;;;11.60;97.20;;;;;;1701105;29;20570;-77
2022/03/18 09:27:12;;;;;;;36.35;32.63;;;11.60;97.20;;;;;;1701006;29;20878;-77
2022/03/18 09:28:05;;;;;;;38.10;34.00;;;11.60;97.20;;;;;;1700572;29;20270;-77
2022/03/18 09:28:56;;;;;;;36.38;32.35;;;11.60;97.20;;;;;;1700548;29;20227;-78
2022/03/18 09:29:47;;;;;;;37.40;33.40;;;11.60;97.20;;;;;;1701050;29;20565;-77
2022/03/18 09:30:39;;;;;;;36.15;32.17;;;11.60;97.20;;;;;;1700954;29;20271;-77
2022/03/18 09:31:31;;;;;;;35.55;31.80;;;11.60;97.20;;;;;;1701100;29;20206;-77
2022/03/18 09:32:21;;;;;;;35.20;31.58;;;11.60;97.20;;;;;;1701142;29;20235;-77
2022/03/18 09:33:13;;;;;;;33.70;30.00;;;11.70;97.20;;;;;;1701076;29;20211;-77
2022/03/18 09:34:04;;;;;;;35.20;31.50;;;11.70;97.20;;;;;;1699560;29;20245;-77
2022/03/18 09:34:56;;;;;;;33.80;30.27;;;11.70;97.20;;;;;;1701175;29;20219;-77
2022/03/18 09:35:47;;;;;;;34.53;30.85;;;11.70;97.20;;;;;;1701143;29;20208;-77
2022/03/18 09:36:38;;;;;;;33.43;29.50;;;11.80;97.20;;;;;;1701144;29;20210;-77
2022/03/18 09:37:32;;;;;;;32.03;28.73;;;11.80;97.20;;;;;;1701055;29;20246;-77
2022/03/18 09:38:22;;;;;;;32.65;28.98;;;11.80;97.20;;;;;;1700743;29;20207;-77
2022/03/18 09:39:14;;;;;;;34.23;29.27;;;11.80;97.20;;;;;;1701171;29;20655;-78
2022/03/18 09:40:08;;;;;;;31.10;27.70;;;11.80;97.20;;;;;;1701190;29;20231;-77
2022/03/18 09:40:59;;;;;;;33.13;29.30;;;11.80;97.20;;;;;;1700934;29;20224;-77
2022/03/18 09:41:51;;;;;;;34.47;30.60;;;11.80;97.20;;;;;;1701083;29;20218;-77
2022/03/18 09:43:04;;;;;;;31.63;28.35;;;11.80;97.20;;;;;;1701053;29;20231;-77
2022/03/18 09:43:56;;;;;;;32.08;28.52;;;11.80;97.20;;;;;;1698161;29;20207;-77
2022/03/18 09:44:46;;;;;;;32.50;29.10;;;11.80;97.20;;;;;;1701035;29;20207;-77
2022/03/18 09:45:39;;;;;;;33.03;29.13;;;11.80;97.20;;;;;;1701006;29;20203;-77
2022/03/18 09:46:31;;;;;;;33.03;29.35;;;11.80;97.20;;;;;;1701046;29;20234;-77
2022/03/18 09:47:22;;;;;;;32.42;27.30;;;11.80;97.20;;;;;;1701169;29;20586;-77
2022/03/18 09:48:13;;;;;;;30.38;27.48;;;11.80;97.20;;;;;;1700704;29;20214;-77
2022/03/18 09:49:11;;;;;;;30.37;27.27;;;11.90;97.20;;;;;;1700908;29;20246;-77
2022/03/18 09:50:03;;;;;;;29.52;26.30;;;11.80;97.20;;;;;;1701150;29;20219;-77
2022/03/18 09:50:55;;;;;;;29.40;26.17;;;11.90;97.20;;;;;;1699305;29;20263;-77
2022/03/18 09:51:48;;;;;;;29.00;25.90;;;11.90;97.20;;;;;;1696660;29;20188;-77
2022/03/18 09:52:40;;;;;;;28.35;25.33;;;11.90;97.20;;;;;;1694523;29;20204;-77
2022/03/18 09:53:34;;;;;;;29.35;26.25;;;11.90;97.20;;;;;;1694530;29;20211;-77
2022/03/18 09:54:25;;;;;;;28.95;25.98;;;12.00;97.20;;;;;;1694445;29;20312;-77
2022/03/18 09:55:17;;;;;;;30.10;26.90;;;11.90;97.20;;;;;;1694514;29;20232;-77
2022/03/18 09:56:08;;;;;;;31.83;27.40;;;12.00;97.20;;;;;;1694500;29;20243;-78
2022/03/18 09:57:01;;;;;;;32.20;26.45;;;12.00;97.20;;;;;;1694449;29;20235;-77
2022/03/18 09:57:52;;;;;;;29.42;26.33;;;12.00;97.20;;;;;;1694413;29;20711;-77
2022/03/18 09:58:44;;;;;;;29.27;25.05;;;12.10;97.20;;;;;;1694174;29;20562;-77
2022/03/18 09:59:35;;;;;;;29.67;26.58;;;12.10;97.20;;;;;;1694460;29;20238;-77
2022/03/18 10:00:27;;;;;;;30.08;26.83;;;12.20;97.20;;;;;;1694253;29;20614;-77
2022/03/18 10:01:18;;;;;;;28.60;25.70;;;12.20;97.20;;;;;;1694431;29;20254;-77
2022/03/18 10:02:38;;;;;;;28.10;25.20;;;12.20;97.20;;;;;;1694542;29;20804;-77
2022/03/18 10:03:36;;;;;;;29.65;26.55;;;12.30;97.20;;;;;;1694413;29;20204;-78
2022/03/18 10:04:28;;;;;;;30.23;26.35;;;12.30;97.20;;;;;;1694334;29;20264;-77
2022/03/18 10:05:19;;;;;;;27.95;24.98;;;12.40;97.20;;;;;;1694703;29;20232;-77
2022/03/18 10:06:11;;;;;;;31.30;23.97;;;12.40;97.20;;;;;;1700933;29;20214;-77
2022/03/18 10:07:12;;;;;;;28.38;25.10;;;12.50;97.20;;;;;;1701059;29;20207;-77
2022/03/18 10:08:05;;;;;;;29.17;25.60;;;12.60;97.20;;;;;;1700794;29;20213;-78
2022/03/18 10:08:58;;;;;;;29.52;26.42;;;12.70;97.20;;;;;;1701078;29;20242;-77
2022/03/18 10:10:00;;;;;;;29.73;26.55;;;12.70;97.20;;;;;;1700865;29;20227;-77
2022/03/18 10:10:52;;;;;;;29.50;25.45;;;12.80;97.20;;;;;;1700822;29;20599;-77
2022/03/18 10:11:46;;;;;;;28.52;25.45;;;12.90;97.20;;;;;;1700869;29;20214;-77
2022/03/18 10:12:39;;;;;;;28.40;25.40;;;12.90;97.20;;;;;;1700925;29;20265;-77
2022/03/18 10:13:50;;;;;;;28.00;23.55;;;12.90;97.20;;;;;;1700972;29;20211;-77
2022/03/18 10:14:45;;;;;;;28.70;24.80;;;13.00;97.20;;;;;;1700947;29;20207;-77
2022/03/18 10:15:37;;;;;;;29.38;26.20;;;13.00;97.20;;;;;;1701009;29;20577;-77
2022/03/18 10:16:33;;;;;;;29.52;26.40;;;13.00;97.20;;;;;;1701084;29;20218;-78
2022/03/18 10:17:24;;;;;;;27.60;24.13;;;13.00;97.20;;;;;;1700946;29;20210;-78
2022/03/18 10:18:17;;;;;;;29.08;25.95;;;13.10;97.20;;;;;;1700536;29;20214;-77
2022/03/18 10:19:09;;;;;;;28.90;25.88;;;13.20;97.20;;;;;;1701055;29;20285;-77
2022/03/18 10:20:02;;;;;;;31.20;25.60;;;13.30;97.20;;;;;;1700949;29;20707;-77
2022/03/18 10:20:55;;;;;;;27.63;24.73;;;13.30;97.20;;;;;;1700964;29;20715;-77
2022/03/18 10:21:51;;;;;;;28.50;24.70;;;13.40;97.20;;;;;;1700463;29;20206;-78
2022/03/18 10:22:43;;;;;;;29.02;25.92;;;13.50;97.20;;;;;;1694282;29;20551;-77
2022/03/18 10:23:35;;;;;;;29.20;26.20;;;13.50;97.20;;;;;;1694456;29;20210;-77
2022/03/18 10:24:28;;;;;;;30.90;26.15;;;13.50;97.20;;;;;;1694450;29;20433;-78
2022/03/18 10:25:39;;;;;;;29.88;26.52;;;13.60;97.20;;;;;;1694391;29;20735;-77
2022/03/18 10:26:35;;;;;;;27.90;24.70;;;13.60;97.20;;;;;;1694212;29;20204;-77
2022/03/18 10:27:25;;;;;;;28.63;25.58;;;13.60;97.20;;;;;;1694351;29;20208;-77
2022/03/18 10:28:32;;;;;;;30.63;27.40;;;13.70;97.20;;;;;;1694046;29;20255;-78
2022/03/18 10:29:24;;;;;;;30.02;26.75;;;13.70;97.20;;;;;;1694251;29;20295;-78
2022/03/18 10:30:21;;;;;;;28.58;25.55;;;13.70;97.20;;;;;;1694170;29;20214;-78
2022/03/18 10:31:19;;;;;;;30.00;26.08;;;13.80;97.20;;;;;;1694231;29;20247;-78
2022/03/18 10:32:11;;;;;;;28.10;25.08;;;13.80;97.20;;;;;;1694236;29;20231;-77